Time;durP1;ratioP1;P1;durP2;ratioP2;P2;SDS_P1;SDS_P2;PMS_P1;PMS_P2;Temp;Humidity;BMP_temperature;BMP_pressure;BME280_temperature;BME280_humidity;BME280_pressure;Samples;Min_cycle;Max_cycle;Signal;HPM_P1;HPM_P2
2022/05/19 04:30:38;;;;;;;22.75;6.15;;;;;;;;;;5048723;28;20221;-78
2022/05/19 04:33:05;;;;;;;27.73;6.53;;;;;;;;;;5050871;28;20292;-78
2022/05/19 04:35:33;;;;;;;16.63;5.32;;;;;;;;;;5051082;28;20255;-77
2022/05/19 04:38:00;;;;;;;23.70;7.00;;;;;;;;;;5051727;28;20233;-77
2022/05/19 04:40:28;;;;;;;16.75;5.43;;;;;;;;;;5048897;28;20266;-78
2022/05/19 04:42:56;;;;;;;18.50;5.75;;;;;;;;;;5043064;28;20205;-79
2022/05/19 04:45:23;;;;;;;17.83;6.10;;;;;;;;;;5046029;28;20287;-78
2022/05/19 04:47:52;;;;;;;16.45;6.07;;;;;;;;;;5047443;28;20687;-78
2022/05/19 04:50:19;;;;;;;16.35;5.38;;;;;;;;;;5061374;28;20225;-80
2022/05/19 04:52:46;;;;;;;14.88;5.78;;;;;;;;;;5058873;28;20255;-80
2022/05/19 04:55:14;;;;;;;14.90;5.60;;;;;;;;;;5056891;28;20209;-80
2022/05/19 04:57:46;;;;;;;16.27;5.60;;;;;;;;;;5056938;28;20225;-81
2022/05/19 05:00:16;;;;;;;13.80;5.22;;;;;;;;;;5064026;28;20651;-82
2022/05/19 05:02:46;;;;;;;9.65;4.70;;;;;;;;;;5064048;28;20198;-81
2022/05/19 05:05:23;;;;;;;8.65;4.15;;;;;;;;;;5062881;28;20201;-82
2022/05/19 05:08:10;;;;;;;14.05;4.68;;;;;;;;;;5062093;28;20257;-82
2022/05/19 05:10:41;;;;;;;7.43;4.63;;;;;;;;;;5050139;28;20220;-90
2022/05/19 05:13:12;;;;;;;11.20;4.22;;;;;;;;;;5051673;28;20201;-90
2022/05/19 05:15:39;;;;;;;6.00;3.78;;;;;;;;;;5050531;28;20205;-88
2022/05/19 05:18:07;;;;;;;8.15;3.47;;;;;;;;;;5058691;28;20224;-81
2022/05/19 05:20:35;;;;;;;6.35;3.05;;;;;;;;;;5059408;28;20228;-84
2022/05/19 05:23:03;;;;;;;4.38;3.25;;;;;;;;;;5061162;28;20207;-85
2022/05/19 05:25:31;;;;;;;8.63;3.50;;;;;;;;;;5058275;28;20236;-83
2022/05/19 05:27:58;;;;;;;11.13;3.25;;;;;;;;;;5060706;28;20236;-84
2022/05/19 05:30:26;;;;;;;5.70;3.20;;;;;;;;;;5056514;28;20259;-84
2022/05/19 05:32:53;;;;;;;11.05;3.45;;;;;;;;;;5049460;28;20228;-87
2022/05/19 05:35:21;;;;;;;3.65;3.13;;;;;;;;;;5045593;28;20254;-86
2022/05/19 05:37:50;;;;;;;4.65;2.92;;;;;;;;;;5055010;28;20291;-85
2022/05/19 05:40:19;;;;;;;3.75;2.70;;;;;;;;;;5054011;28;20284;-85
2022/05/19 05:42:46;;;;;;;4.30;2.80;;;;;;;;;;5056547;28;20205;-85
2022/05/19 05:45:13;;;;;;;2.83;2.60;;;;;;;;;;5055983;28;20209;-85
2022/05/19 05:47:41;;;;;;;4.85;3.08;;;;;;;;;;5053766;28;20278;-86
2022/05/19 05:50:08;;;;;;;4.22;2.78;;;;;;;;;;5053737;28;20196;-84
2022/05/19 05:52:36;;;;;;;5.78;2.72;;;;;;;;;;5044938;28;20206;-85
2022/05/19 05:55:05;;;;;;;6.20;3.13;;;;;;;;;;5053049;28;20220;-81
2022/05/19 05:57:35;;;;;;;6.95;3.08;;;;;;;;;;5061974;28;20237;-81
2022/05/19 06:00:03;;;;;;;4.97;2.70;;;;;;;;;;5059229;28;20236;-81
2022/05/19 06:02:30;;;;;;;4.68;2.70;;;;;;;;;;5070602;28;20681;-81
2022/05/19 06:04:58;;;;;;;4.13;2.85;;;;;;;;;;5064524;28;20266;-81
2022/05/19 06:07:27;;;;;;;4.32;2.70;;;;;;;;;;5060904;28;20307;-80
2022/05/19 06:09:55;;;;;;;2.88;2.60;;;;;;;;;;5061601;28;20193;-81
2022/05/19 06:12:24;;;;;;;5.03;2.95;;;;;;;;;;5061896;28;20209;-80
2022/05/19 06:14:53;;;;;;;5.90;2.67;;;;;;;;;;5059448;28;20205;-81
2022/05/19 06:17:20;;;;;;;4.50;3.10;;;;;;;;;;5062213;28;20279;-81
2022/05/19 06:19:47;;;;;;;2.72;2.53;;;;;;;;;;5061671;28;20232;-81
2022/05/19 06:22:15;;;;;;;5.78;3.47;;;;;;;;;;5061263;28;20201;-81
2022/05/19 06:24:42;;;;;;;2.92;2.72;;;;;;;;;;5061129;28;20232;-81
2022/05/19 06:27:09;;;;;;;4.38;2.70;;;;;;;;;;5063410;28;20224;-81
2022/05/19 06:29:38;;;;;;;4.85;2.70;;;;;;;;;;5060389;28;20217;-80
2022/05/19 06:32:06;;;;;;;4.85;2.60;;;;;;;;;;5060249;28;20293;-80
2022/05/19 06:34:33;;;;;;;4.82;2.90;;;;;;;;;;5059218;28;20209;-80
2022/05/19 06:37:02;;;;;;;3.20;2.65;;;;;;;;;;5060250;28;20239;-81
2022/05/19 06:39:29;;;;;;;4.00;2.60;;;;;;;;;;5059951;28;20243;-81
2022/05/19 06:42:03;;;;;;;3.17;2.70;;;;;;;;;;5061667;28;20201;-81
2022/05/19 06:44:31;;;;;;;3.30;2.78;;;;;;;;;;5052351;28;20259;-80
2022/05/19 06:47:00;;;;;;;3.08;2.78;;;;;;;;;;5053261;28;20252;-81
2022/05/19 06:49:28;;;;;;;3.10;2.80;;;;;;;;;;5061318;28;20232;-81
2022/05/19 06:51:55;;;;;;;5.47;2.67;;;;;;;;;;5053286;28;20360;-81
2022/05/19 06:54:23;;;;;;;3.25;2.15;;;;;;;;;;5052671;28;20205;-81
2022/05/19 06:56:50;;;;;;;3.13;2.70;;;;;;;;;;5056261;28;20247;-81
2022/05/19 06:59:18;;;;;;;2.97;2.67;;;;;;;;;;5059383;28;20225;-81
2022/05/19 07:01:46;;;;;;;7.85;2.70;;;;;;;;;;5062260;28;20259;-81
2022/05/19 07:04:15;;;;;;;2.88;2.47;;;;;;;;;;5060702;28;20243;-80
2022/05/19 07:06:42;;;;;;;3.60;2.70;;;;;;;;;;5052904;28;20271;-80
2022/05/19 07:09:09;;;;;;;3.58;2.53;;;;;;;;;;5059500;28;20291;-81
2022/05/19 07:11:37;;;;;;;2.83;2.38;;;;;;;;;;5058971;28;20221;-80
2022/05/19 07:14:05;;;;;;;3.38;2.42;;;;;;;;;;5058109;28;20229;-80
2022/05/19 07:16:33;;;;;;;3.85;2.58;;;;;;;;;;5058517;28;20212;-80
2022/05/19 07:21:48;;;;;;;2.60;2.40;;;;;;;;;;5056854;28;20207;-81
2022/05/19 07:24:20;;;;;;;3.00;2.58;;;;;;;;;;5056559;28;20235;-81
2022/05/19 07:26:48;;;;;;;2.65;2.33;;;;;;;;;;5057870;28;20705;-81
2022/05/19 07:29:16;;;;;;;2.47;2.28;;;;;;;;;;5057605;28;20244;-80
2022/05/19 07:31:44;;;;;;;2.90;2.47;;;;;;;;;;5057002;28;20225;-80
2022/05/19 07:34:12;;;;;;;2.53;2.30;;;;;;;;;;5056571;28;20308;-81
2022/05/19 07:36:40;;;;;;;3.38;2.33;;;;;;;;;;5057872;28;20253;-80
2022/05/19 07:39:09;;;;;;;3.00;2.67;;;;;;;;;;5056768;28;20239;-80
2022/05/19 07:41:36;;;;;;;2.47;2.28;;;;;;;;;;5056930;28;20208;-81
2022/05/19 07:44:04;;;;;;;2.90;2.70;;;;;;;;;;5055572;28;20694;-80
2022/05/19 07:46:31;;;;;;;3.97;2.67;;;;;;;;;;5057129;28;20300;-81
2022/05/19 07:48:59;;;;;;;3.05;2.72;;;;;;;;;;5059714;28;20225;-81
2022/05/19 07:51:36;;;;;;;3.08;2.35;;;;;;;;;;5063347;28;20231;-81
2022/05/19 07:54:04;;;;;;;2.90;2.70;;;;;;;;;;5061187;28;20243;-81
2022/05/19 07:56:33;;;;;;;2.90;2.70;;;;;;;;;;5060580;28;20213;-80
2022/05/19 07:59:00;;;;;;;2.70;2.33;;;;;;;;;;5059576;28;20231;-81
2022/05/19 08:01:27;;;;;;;2.63;2.30;;;;;;;;;;5060234;28;20204;-81
2022/05/19 08:03:55;;;;;;;2.67;2.47;;;;;;;;;;5059720;28;20295;-80
2022/05/19 08:06:22;;;;;;;3.35;2.40;;;;;;;;;;5061313;28;20266;-80
2022/05/19 08:08:49;;;;;;;3.47;2.53;;;;;;;;;;5057942;28;20232;-78
2022/05/19 08:11:17;;;;;;;3.10;2.40;;;;;;;;;;5059001;28;20641;-80
2022/05/19 08:16:30;;;;;;;3.35;3.08;;;;;;;;;;5058856;28;20282;-80
2022/05/19 08:18:58;;;;;;;3.10;2.80;;;;;;;;;;5056793;28;20252;-80
2022/05/19 08:21:25;;;;;;;2.95;2.70;;;;;;;;;;5058133;28;20201;-81
2022/05/19 08:23:52;;;;;;;3.78;2.53;;;;;;;;;;5057244;28;20220;-81
2022/05/19 08:26:21;;;;;;;3.05;2.60;;;;;;;;;;5059198;28;20205;-80
2022/05/19 08:28:52;;;;;;;3.13;2.70;;;;;;;;;;5058265;28;20320;-80
2022/05/19 08:31:21;;;;;;;3.70;2.85;;;;;;;;;;5058918;28;20251;-81
2022/05/19 08:33:49;;;;;;;5.93;2.88;;;;;;;;;;5058568;28;20232;-81
2022/05/19 08:36:17;;;;;;;5.18;3.08;;;;;;;;;;5057257;28;20209;-81
2022/05/19 08:38:44;;;;;;;4.43;2.78;;;;;;;;;;5057723;28;20232;-80
2022/05/19 08:41:18;;;;;;;3.45;2.80;;;;;;;;;;5059488;28;20205;-81
2022/05/19 08:43:47;;;;;;;4.65;2.75;;;;;;;;;;5057193;28;20201;-80
2022/05/19 08:46:20;;;;;;;4.05;2.60;;;;;;;;;;5057611;28;20213;-80
2022/05/19 08:48:48;;;;;;;2.78;2.40;;;;;;;;;;5056806;28;20232;-80
2022/05/19 08:51:16;;;;;;;2.95;2.70;;;;;;;;;;5056940;28;20217;-80
2022/05/19 08:53:44;;;;;;;3.00;2.42;;;;;;;;;;5054502;28;20209;-78
2022/05/19 08:56:13;;;;;;;2.80;2.60;;;;;;;;;;5048757;28;20209;-80
2022/05/19 08:58:49;;;;;;;2.92;2.60;;;;;;;;;;5055806;28;20229;-81
2022/05/19 09:01:20;;;;;;;3.28;2.70;;;;;;;;;;5051136;28;20215;-81
2022/05/19 09:03:54;;;;;;;2.83;2.63;;;;;;;;;;5056555;28;20209;-81
2022/05/19 09:06:29;;;;;;;4.63;2.90;;;;;;;;;;5057244;28;20215;-80
2022/05/19 09:09:03;;;;;;;3.05;2.80;;;;;;;;;;5056127;28;20228;-81
2022/05/19 09:11:38;;;;;;;4.30;3.13;;;;;;;;;;5055848;28;20229;-81
2022/05/19 09:14:10;;;;;;;2.47;2.28;;;;;;;;;;5054224;28;20251;-80
2022/05/19 09:16:39;;;;;;;2.97;2.67;;;;;;;;;;5054679;28;20209;-80
2022/05/19 09:19:09;;;;;;;2.63;2.42;;;;;;;;;;5055930;28;20225;-80
2022/05/19 09:21:37;;;;;;;2.72;2.53;;;;;;;;;;5057108;28;20212;-80
2022/05/19 09:24:05;;;;;;;3.15;2.70;;;;;;;;;;5055612;28;20267;-81
2022/05/19 09:26:36;;;;;;;2.95;2.75;;;;;;;;;;5057930;28;20216;-82
2022/05/19 09:29:07;;;;;;;3.25;2.75;;;;;;;;;;5056748;28;20236;-80
2022/05/19 09:31:35;;;;;;;2.92;2.72;;;;;;;;;;5059059;28;20244;-81
2022/05/19 09:34:06;;;;;;;3.33;3.03;;;;;;;;;;5059245;28;20288;-82
2022/05/19 09:36:38;;;;;;;4.70;3.08;;;;;;;;;;5059991;28;20216;-80
2022/05/19 09:39:05;;;;;;;5.68;3.00;;;;;;;;;;5057895;28;20258;-81
2022/05/19 09:41:36;;;;;;;4.38;2.65;;;;;;;;;;5057206;28;20201;-80
2022/05/19 09:44:05;;;;;;;3.25;2.97;;;;;;;;;;5059395;28;20228;-81
2022/05/19 09:46:39;;;;;;;5.20;3.20;;;;;;;;;;5060504;28;20207;-80
2022/05/19 09:49:16;;;;;;;3.83;3.00;;;;;;;;;;5057935;28;20229;-78
2022/05/19 09:51:45;;;;;;;4.30;2.63;;;;;;;;;;5058285;28;20212;-80
2022/05/19 09:54:15;;;;;;;3.05;2.65;;;;;;;;;;5059801;28;20202;-85
2022/05/19 09:56:45;;;;;;;3.00;2.80;;;;;;;;;;5058147;28;20205;-79
2022/05/19 09:59:14;;;;;;;3.50;2.90;;;;;;;;;;5056924;28;20229;-79
2022/05/19 10:04:32;;;;;;;4.30;2.85;;;;;;;;;;5038379;28;20212;-79
2022/05/19 10:07:10;;;;;;;4.22;3.13;;;;;;;;;;5058361;28;20194;-80
2022/05/19 10:09:42;;;;;;;2.95;2.75;;;;;;;;;;5059237;28;20224;-80
2022/05/19 10:12:11;;;;;;;4.32;3.17;;;;;;;;;;5059737;28;20304;-80
2022/05/19 10:14:44;;;;;;;4.10;3.25;;;;;;;;;;5056721;28;20193;-79
2022/05/19 10:17:15;;;;;;;3.25;2.90;;;;;;;;;;5057077;28;20586;-80
2022/05/19 10:22:50;;;;;;;3.78;2.95;;;;;;;;;;5053853;28;20205;-80
2022/05/19 10:25:28;;;;;;;3.20;2.90;;;;;;;;;;5055906;28;20209;-79
2022/05/19 14:31:19;;;;;;;6.93;4.10;;;;;;;;;;5033094;28;20222;-88
2022/05/19 14:34:24;;;;;;;;;;;;;;;;;;;;;
2022/05/19 14:46:21;;;;;;;4.30;3.90;;;;;;;;;;4992385;28;20241;-91
2022/05/19 14:49:20;;;;;;;5.25;4.35;;;;;;;;;;4987527;28;20219;-88
2022/05/19 14:54:55;;;;;;;4.68;4.30;;;;;;;;;;4954567;28;20276;-89
2022/05/19 15:07:29;;;;;;;5.13;4.47;;;;;;;;;;4929174;28;20279;-91
2022/05/19 15:10:18;;;;;;;;;;;;;;;;;;;;;
2022/05/19 15:15:41;;;;;;;5.55;4.38;;;;;;;;;;4929602;28;20204;-91
2022/05/19 15:21:17;;;;;;;4.70;4.30;;;;;;;;;;4972787;28;20228;-91
2022/05/19 15:38:56;;;;;;;4.45;4.10;;;;;;;;;;4951792;28;20216;-91
2022/05/19 16:09:17;;;;;;;4.88;4.07;;;;;;;;;;4820564;29;20221;-91
2022/05/19 16:18:25;;;;;;;;;;;;;;;;;;;;;
2022/05/19 16:24:05;;;;;;;;;;;;;;;;;;;;;
2022/05/19 16:29:54;;;;;;;;;;;;;;;;;;;;;
2022/05/19 16:32:22;;;;;;;4.47;3.78;;;;;;;;;;5049599;22;20313;-78
2022/05/19 16:34:51;;;;;;;4.28;3.97;;;;;;;;;;5051524;28;20224;-78
2022/05/19 16:37:21;;;;;;;4.18;3.88;;;;;;;;;;5051995;28;20251;-77
2022/05/19 16:39:48;;;;;;;3.78;3.47;;;;;;;;;;5052045;28;20230;-77
2022/05/19 16:42:16;;;;;;;4.53;3.65;;;;;;;;;;5051864;28;20320;-74
2022/05/19 16:44:48;;;;;;;4.15;3.80;;;;;;;;;;5051727;28;20244;-77
2022/05/19 16:47:15;;;;;;;3.72;3.42;;;;;;;;;;5051821;28;20213;-77
2022/05/19 16:49:45;;;;;;;3.70;3.40;;;;;;;;;;5051474;28;20690;-77
2022/05/19 16:52:17;;;;;;;3.83;3.53;;;;;;;;;;5051951;28;20249;-77
2022/05/19 16:57:43;;;;;;;4.22;3.90;;;;;;;;;;5051709;28;20247;-77
2022/05/19 17:00:12;;;;;;;3.95;3.58;;;;;;;;;;5051627;28;20220;-76
2022/05/19 17:02:39;;;;;;;3.53;3.22;;;;;;;;;;5051539;28;20244;-77
2022/05/19 17:05:07;;;;;;;4.10;3.60;;;;;;;;;;5051054;28;20220;-77
2022/05/19 17:07:38;;;;;;;3.72;3.42;;;;;;;;;;5050060;28;20232;-77
2022/05/19 17:10:06;;;;;;;3.97;3.67;;;;;;;;;;5051508;28;20207;-77
2022/05/19 17:12:33;;;;;;;4.00;3.60;;;;;;;;;;5051109;28;20657;-77
2022/05/19 17:15:00;;;;;;;3.90;3.60;;;;;;;;;;5051185;28;20204;-77
2022/05/19 17:17:28;;;;;;;3.70;3.40;;;;;;;;;;5051562;28;20204;-76
2022/05/19 17:19:58;;;;;;;4.22;3.83;;;;;;;;;;5051110;28;20277;-77
2022/05/19 17:22:25;;;;;;;4.25;3.85;;;;;;;;;;5051762;28;20225;-76
2022/05/19 17:24:54;;;;;;;3.35;3.13;;;;;;;;;;5051371;28;20278;-77
2022/05/19 17:27:21;;;;;;;4.07;3.65;;;;;;;;;;5051895;28;20312;-77
2022/05/19 17:29:48;;;;;;;3.55;3.30;;;;;;;;;;5051550;28;20228;-77
2022/05/19 17:32:16;;;;;;;3.95;3.65;;;;;;;;;;5050929;28;20233;-77
2022/05/19 17:34:44;;;;;;;3.75;3.45;;;;;;;;;;5050499;28;20307;-77
2022/05/19 17:37:14;;;;;;;4.07;3.75;;;;;;;;;;5051409;28;20240;-76
2022/05/19 17:39:46;;;;;;;4.28;3.88;;;;;;;;;;5051428;28;20307;-76
2022/05/19 17:42:19;;;;;;;3.97;3.67;;;;;;;;;;5051365;28;20232;-76
2022/05/19 17:44:52;;;;;;;3.63;3.33;;;;;;;;;;5051021;28;20209;-77
2022/05/19 17:47:25;;;;;;;3.85;3.47;;;;;;;;;;5051284;28;20205;-76
2022/05/19 17:49:53;;;;;;;4.00;3.65;;;;;;;;;;5051310;28;20291;-76
2022/05/19 17:52:20;;;;;;;3.70;3.40;;;;;;;;;;5050724;28;20229;-77
2022/05/19 17:54:48;;;;;;;4.03;3.72;;;;;;;;;;5050462;28;20256;-77
2022/05/19 17:57:17;;;;;;;3.92;3.63;;;;;;;;;;5050987;28;20576;-77
2022/05/19 17:59:46;;;;;;;3.72;3.42;;;;;;;;;;5051215;28;20209;-76
2022/05/19 18:02:13;;;;;;;4.72;3.40;;;;;;;;;;5050591;28;20221;-76
2022/05/19 18:04:40;;;;;;;4.13;3.63;;;;;;;;;;5050420;28;20221;-77
2022/05/19 18:07:08;;;;;;;3.88;3.45;;;;;;;;;;5049871;28;20209;-77
2022/05/19 18:09:35;;;;;;;3.80;3.50;;;;;;;;;;5050921;28;20243;-77
2022/05/19 18:12:02;;;;;;;4.10;3.70;;;;;;;;;;5050878;28;20756;-76
2022/05/19 18:19:58;;;;;;;3.75;3.45;;;;;;;;;;5050861;28;20199;-77
2022/05/19 18:22:27;;;;;;;3.95;3.40;;;;;;;;;;5050822;28;20235;-77
2022/05/19 18:24:55;;;;;;;4.07;3.60;;;;;;;;;;5051275;28;20210;-77
2022/05/19 18:27:29;;;;;;;3.65;3.28;;;;;;;;;;5054160;28;20236;-77
2022/05/19 18:29:59;;;;;;;4.07;3.70;;;;;;;;;;5054428;28;20204;-77
2022/05/19 18:32:29;;;;;;;4.00;3.60;;;;;;;;;;5049674;28;20318;-76
2022/05/19 18:35:01;;;;;;;4.05;3.70;;;;;;;;;;5049820;28;20233;-79
2022/05/19 18:37:37;;;;;;;16.77;5.32;;;;;;;;;;5058065;28;20579;-80
2022/05/19 18:44:49;;;;;;;10.98;5.00;;;;;;;;;;5059347;28;20204;-80
2022/05/19 18:45:41;;;;;;;7.38;4.45;;;;;;;;;;5051766;28;20204;-77
2022/05/19 18:48:11;;;;;;;9.07;4.35;;;;;;;;;;5054221;28;20259;-77
2022/05/19 18:50:39;;;;;;;7.07;4.30;;;;;;;;;;5050222;28;20224;-77
2022/05/19 18:53:06;;;;;;;5.70;4.20;;;;;;;;;;5053311;28;20209;-77
2022/05/19 18:55:34;;;;;;;6.53;4.03;;;;;;;;;;5050491;28;20274;-76
2022/05/19 18:58:01;;;;;;;4.60;3.97;;;;;;;;;;5053729;28;20205;-78
2022/05/19 19:00:28;;;;;;;7.30;4.28;;;;;;;;;;5053713;28;20205;-78
2022/05/19 19:02:59;;;;;;;4.85;4.35;;;;;;;;;;5055903;28;20236;-81
2022/05/19 19:05:26;;;;;;;6.07;4.05;;;;;;;;;;5053843;28;20258;-78
2022/05/19 19:07:56;;;;;;;10.48;5.40;;;;;;;;;;5052941;28;20264;-78
2022/05/19 19:10:23;;;;;;;12.38;5.60;;;;;;;;;;5053239;28;20255;-78
2022/05/19 19:12:53;;;;;;;9.93;5.80;;;;;;;;;;5050810;28;20644;-77
2022/05/19 19:15:22;;;;;;;9.98;5.55;;;;;;;;;;5051748;28;20622;-78
2022/05/19 19:17:50;;;;;;;14.95;6.28;;;;;;;;;;5052397;28;20199;-78
2022/05/19 19:20:19;;;;;;;19.88;7.30;;;;;;;;;;5048621;28;20213;-78
2022/05/19 19:22:46;;;;;;;20.83;7.38;;;;;;;;;;5051736;28;20217;-77
2022/05/19 19:25:19;;;;;;;17.40;8.07;;;;;;;;;;5052645;28;20209;-78
2022/05/19 19:27:55;;;;;;;15.75;7.10;;;;;;;;;;5052838;28;20382;-77
2022/05/19 19:30:25;;;;;;;15.30;7.78;;;;;;;;;;5052858;28;20200;-77
2022/05/19 19:32:52;;;;;;;18.33;9.13;;;;;;;;;;5044757;28;20237;-77
2022/05/19 19:35:26;;;;;;;20.90;7.95;;;;;;;;;;5051900;28;20224;-79
2022/05/19 19:37:53;;;;;;;17.15;8.00;;;;;;;;;;5052300;28;20197;-77
2022/05/19 19:40:24;;;;;;;15.48;8.25;;;;;;;;;;5051925;28;20224;-77
2022/05/19 19:42:54;;;;;;;19.73;8.13;;;;;;;;;;5045383;28;20225;-76
2022/05/19 19:45:23;;;;;;;16.98;7.93;;;;;;;;;;5051660;28;20197;-76
2022/05/19 19:47:53;;;;;;;20.08;8.38;;;;;;;;;;5051997;28;20286;-76
2022/05/19 19:53:09;;;;;;;13.48;7.13;;;;;;;;;;5047751;28;20204;-76
2022/05/19 19:55:37;;;;;;;12.25;7.68;;;;;;;;;;5048487;28;20209;-74
2022/05/19 19:58:07;;;;;;;14.35;7.10;;;;;;;;;;5051910;28;20201;-76
2022/05/19 20:00:37;;;;;;;13.60;7.30;;;;;;;;;;5051656;28;20263;-76
2022/05/19 20:03:05;;;;;;;13.13;6.82;;;;;;;;;;5050936;28;20201;-76
2022/05/19 20:05:32;;;;;;;10.15;6.80;;;;;;;;;;5051219;28;20208;-76
2022/05/19 20:08:00;;;;;;;11.32;6.90;;;;;;;;;;5051285;28;20236;-76
2022/05/19 20:10:29;;;;;;;10.93;7.07;;;;;;;;;;5051443;28;20204;-76
2022/05/19 20:12:59;;;;;;;11.00;6.47;;;;;;;;;;5051876;28;20339;-76
2022/05/19 20:15:27;;;;;;;11.20;6.60;;;;;;;;;;5050586;28;20259;-76
2022/05/19 20:17:54;;;;;;;9.80;6.60;;;;;;;;;;5051079;28;20204;-76
2022/05/19 20:20:21;;;;;;;12.13;6.30;;;;;;;;;;5051477;28;20213;-76
2022/05/19 20:22:55;;;;;;;11.18;6.25;;;;;;;;;;5051275;28;20217;-77
2022/05/19 20:25:23;;;;;;;11.55;6.38;;;;;;;;;;5050805;28;20270;-76
2022/05/19 20:27:52;;;;;;;7.70;5.85;;;;;;;;;;5051723;28;20209;-76
2022/05/19 20:30:19;;;;;;;6.70;5.88;;;;;;;;;;5051563;28;20304;-76
2022/05/19 20:32:47;;;;;;;9.60;6.80;;;;;;;;;;5051135;28;20663;-76
2022/05/19 20:35:21;;;;;;;8.43;5.55;;;;;;;;;;5049715;28;20278;-77
2022/05/19 20:37:49;;;;;;;11.18;5.80;;;;;;;;;;5045955;28;20255;-76
2022/05/19 20:40:17;;;;;;;7.30;5.75;;;;;;;;;;5045124;28;20213;-76
2022/05/19 20:42:46;;;;;;;7.55;5.85;;;;;;;;;;5045143;28;20225;-76
2022/05/19 20:45:20;;;;;;;8.50;5.93;;;;;;;;;;5045790;28;20198;-76
2022/05/19 20:47:48;;;;;;;6.85;5.47;;;;;;;;;;5044392;28;20201;-76
2022/05/19 20:50:16;;;;;;;7.20;5.78;;;;;;;;;;5050281;28;20205;-76
2022/05/19 20:55:31;;;;;;;7.60;5.75;;;;;;;;;;5049002;28;20233;-76
2022/05/19 20:57:58;;;;;;;6.18;5.57;;;;;;;;;;5050893;28;20212;-76
2022/05/19 21:00:30;;;;;;;7.68;5.60;;;;;;;;;;5050916;28;20201;-76
2022/05/19 21:02:58;;;;;;;8.10;5.53;;;;;;;;;;5050840;28;20236;-76
2022/05/19 21:05:27;;;;;;;6.80;5.55;;;;;;;;;;5050064;28;20224;-75
2022/05/19 21:07:55;;;;;;;6.15;5.38;;;;;;;;;;5051306;28;20209;-76
2022/05/19 21:10:25;;;;;;;6.85;5.20;;;;;;;;;;5050820;28;20197;-76
2022/05/19 21:12:53;;;;;;;5.88;5.22;;;;;;;;;;5050765;28;20216;-76
2022/05/19 21:15:20;;;;;;;6.32;5.70;;;;;;;;;;5050565;28;20263;-76
2022/05/19 21:17:51;;;;;;;6.15;5.55;;;;;;;;;;5050605;28;20611;-77
2022/05/19 21:20:19;;;;;;;6.13;5.07;;;;;;;;;;5050913;28;20200;-76
2022/05/19 21:22:47;;;;;;;5.68;5.13;;;;;;;;;;5050759;28;20252;-76
2022/05/19 21:27:59;;;;;;;5.93;5.18;;;;;;;;;;5045981;28;20270;-76
2022/05/19 21:30:27;;;;;;;6.13;4.90;;;;;;;;;;5051013;28;20574;-76
2022/05/19 21:33:12;;;;;;;5.82;5.22;;;;;;;;;;5050749;28;20264;-77
2022/05/19 21:35:40;;;;;;;6.10;4.85;;;;;;;;;;5049559;28;20227;-76
2022/05/19 21:38:13;;;;;;;4.97;4.50;;;;;;;;;;5050817;28;20228;-76
2022/05/19 21:40:42;;;;;;;5.82;4.68;;;;;;;;;;5050760;28;20213;-76
2022/05/19 21:43:13;;;;;;;4.82;4.45;;;;;;;;;;5050827;28;20240;-76
2022/05/19 21:45:40;;;;;;;5.18;4.60;;;;;;;;;;5048889;28;20221;-76
2022/05/19 21:48:10;;;;;;;7.05;5.00;;;;;;;;;;5050693;28;20213;-76
2022/05/19 21:55:10;;;;;;;5.15;4.65;;;;;;;;;;5050865;28;20223;-76
2022/05/19 21:56:20;;;;;;;5.20;4.20;;;;;;;;;;5050648;28;20216;-76
2022/05/19 21:58:47;;;;;;;5.65;4.47;;;;;;;;;;5051163;28;20200;-76
2022/05/19 22:01:14;;;;;;;4.97;4.47;;;;;;;;;;5054102;28;20260;-76
2022/05/19 22:03:43;;;;;;;5.38;4.70;;;;;;;;;;5054013;28;20284;-76
2022/05/19 22:08:56;;;;;;;4.78;4.38;;;;;;;;;;5049626;28;20294;-76
2022/05/19 22:11:24;;;;;;;5.28;4.80;;;;;;;;;;5054429;28;20777;-76
2022/05/19 22:13:51;;;;;;;6.05;4.15;;;;;;;;;;5053760;28;20683;-76
2022/05/19 22:16:19;;;;;;;4.43;4.07;;;;;;;;;;5054393;28;20292;-76
2022/05/19 22:18:48;;;;;;;5.82;4.43;;;;;;;;;;5054544;28;20233;-75
2022/05/19 22:21:16;;;;;;;4.80;4.40;;;;;;;;;;5054090;28;20225;-76
2022/05/19 22:23:43;;;;;;;4.68;4.10;;;;;;;;;;5053660;28;20209;-76
2022/05/19 22:26:11;;;;;;;4.80;4.40;;;;;;;;;;5053820;28;20201;-76
2022/05/19 22:28:40;;;;;;;4.80;4.38;;;;;;;;;;5054456;28;20229;-76
2022/05/19 22:31:08;;;;;;;4.63;4.10;;;;;;;;;;5053331;28;20319;-77
2022/05/19 22:33:46;;;;;;;4.70;4.30;;;;;;;;;;5067517;22;20229;-86
2022/05/19 22:36:14;;;;;;;4.55;4.15;;;;;;;;;;5030985;28;20232;-87
2022/05/19 22:38:45;;;;;;;4.20;3.78;;;;;;;;;;5032462;28;20207;-86
2022/05/19 22:41:12;;;;;;;4.95;4.45;;;;;;;;;;5032028;28;20229;-86
2022/05/19 22:43:39;;;;;;;4.15;3.85;;;;;;;;;;5031621;28;20245;-85
2022/05/19 22:46:09;;;;;;;4.68;4.28;;;;;;;;;;5032320;28;20206;-85
2022/05/19 22:48:41;;;;;;;4.70;4.30;;;;;;;;;;5032410;28;20208;-86
2022/05/19 22:51:08;;;;;;;4.82;4.40;;;;;;;;;;5018926;28;20245;-86
2022/05/19 22:53:37;;;;;;;4.55;4.15;;;;;;;;;;5025538;28;20230;-86
2022/05/19 22:56:07;;;;;;;4.15;3.85;;;;;;;;;;5025836;28;20231;-86
2022/05/19 22:58:34;;;;;;;4.07;3.78;;;;;;;;;;5025534;28;20218;-87
2022/05/19 23:01:04;;;;;;;4.35;3.95;;;;;;;;;;5031780;28;20221;-87
2022/05/19 23:03:31;;;;;;;4.18;3.88;;;;;;;;;;5031446;28;20230;-88
2022/05/19 23:05:59;;;;;;;4.50;4.07;;;;;;;;;;5031308;28;20203;-84
2022/05/19 23:08:26;;;;;;;4.00;3.70;;;;;;;;;;5032305;28;20210;-87
2022/05/19 23:10:55;;;;;;;4.22;3.83;;;;;;;;;;5031020;28;20203;-86
2022/05/19 23:13:24;;;;;;;4.97;3.97;;;;;;;;;;5031770;28;20234;-87
2022/05/19 23:15:51;;;;;;;5.53;3.80;;;;;;;;;;5030646;28;20222;-86
2022/05/19 23:18:19;;;;;;;3.53;3.33;;;;;;;;;;5031001;28;20210;-85
2022/05/19 23:20:46;;;;;;;5.03;3.92;;;;;;;;;;5031772;28;20241;-86
2022/05/19 23:23:13;;;;;;;4.28;3.75;;;;;;;;;;5031770;28;20225;-86
2022/05/19 23:25:41;;;;;;;4.20;3.80;;;;;;;;;;5030454;28;20202;-86
2022/05/19 23:28:10;;;;;;;4.10;3.80;;;;;;;;;;5031898;28;20207;-87
2022/05/19 23:30:37;;;;;;;4.07;3.75;;;;;;;;;;5030990;28;20265;-86
2022/05/19 23:33:24;;;;;;;3.78;3.53;;;;;;;;;;5030998;28;20242;-87
2022/05/19 23:35:57;;;;;;;4.03;3.78;;;;;;;;;;5030475;28;20226;-86
2022/05/19 23:38:24;;;;;;;4.15;3.78;;;;;;;;;;5031386;28;20298;-86
2022/05/19 23:40:52;;;;;;;3.60;3.30;;;;;;;;;;5031396;28;20214;-87
2022/05/19 23:43:20;;;;;;;3.88;3.50;;;;;;;;;;5030691;28;20230;-86
2022/05/19 23:45:47;;;;;;;4.05;3.70;;;;;;;;;;5030910;28;20723;-86
2022/05/19 23:48:15;;;;;;;3.80;3.50;;;;;;;;;;5030994;28;20202;-87
2022/05/19 23:50:43;;;;;;;4.07;3.72;;;;;;;;;;5030917;28;20237;-85
2022/05/19 23:53:13;;;;;;;3.72;3.42;;;;;;;;;;5030776;28;20226;-86
2022/05/19 23:55:40;;;;;;;3.78;3.47;;;;;;;;;;5030142;28;20242;-85
2022/05/19 23:58:08;;;;;;;3.78;3.38;;;;;;;;;;5030999;28;20217;-86
